Time;durP1;ratioP1;P1;durP2;ratioP2;P2;SDS_P1;SDS_P2;PMS_P1;PMS_P2;Temp;Humidity;BMP_temperature;BMP_pressure;BME280_temperature;BME280_humidity;BME280_pressure;Samples;Min_cycle;Max_cycle;Signal;HPM_P1;HPM_P2
2024/01/01 00:02:32;;;;;;;5.57;5.07;;;24.20;66.40;;;;;;6219364;28;89178;-63
2024/01/01 00:05:36;;;;;;;5.90;5.30;;;24.10;65.00;;;;;;6225136;28;88307;-63
2024/01/01 00:08:38;;;;;;;6.65;5.53;;;24.10;64.70;;;;;;6220612;28;89263;-63
2024/01/01 00:11:40;;;;;;;5.80;5.05;;;24.10;65.20;;;;;;6221954;28;89107;-63
2024/01/01 00:14:41;;;;;;;5.50;5.00;;;24.10;65.40;;;;;;6229084;28;90407;-62
2024/01/01 00:17:45;;;;;;;5.88;5.32;;;24.10;65.70;;;;;;6229183;28;89139;-62
2024/01/01 00:20:47;;;;;;;5.55;5.05;;;24.10;65.80;;;;;;6217830;28;89085;-63
2024/01/01 00:23:49;;;;;;;5.43;4.97;;;24.00;65.90;;;;;;6225086;28;89358;-62
2024/01/01 00:26:51;;;;;;;5.70;5.00;;;24.10;66.10;;;;;;6228657;28;89012;-63
2024/01/01 00:29:53;;;;;;;5.65;5.15;;;24.00;66.10;;;;;;6219652;28;89155;-62
2024/01/01 00:32:56;;;;;;;6.03;5.53;;;24.00;66.20;;;;;;6224179;28;89107;-63
2024/01/01 00:35:58;;;;;;;5.93;5.32;;;23.90;66.20;;;;;;6225601;28;88910;-62
2024/01/01 00:39:00;;;;;;;5.70;5.20;;;24.00;66.40;;;;;;6221647;28;87983;-63
2024/01/01 00:42:02;;;;;;;6.20;5.60;;;24.00;66.40;;;;;;6230033;28;89146;-63
2024/01/01 00:45:05;;;;;;;5.72;5.22;;;23.90;66.40;;;;;;6218102;28;88885;-63
2024/01/01 00:48:09;;;;;;;5.90;5.30;;;23.90;66.50;;;;;;6228207;28;89044;-63
2024/01/01 00:51:11;;;;;;;6.03;5.50;;;23.90;66.60;;;;;;6222407;28;89054;-63
2024/01/01 00:54:13;;;;;;;6.20;5.70;;;23.90;66.70;;;;;;6227761;28;89362;-63
2024/01/01 00:57:15;;;;;;;6.05;5.50;;;23.90;66.70;;;;;;6227826;28;88354;-62
2024/01/01 01:00:17;;;;;;;6.00;5.50;;;23.90;66.70;;;;;;6228432;28;89039;-63
2024/01/01 01:03:20;;;;;;;6.63;6.03;;;23.80;66.70;;;;;;6229161;28;89008;-63
2024/01/01 01:06:22;;;;;;;6.45;5.88;;;23.90;66.70;;;;;;6223726;28;88208;-63
2024/01/01 01:09:24;;;;;;;6.40;5.80;;;23.80;66.60;;;;;;6225388;28;89011;-62
2024/01/01 01:12:26;;;;;;;6.78;6.10;;;23.80;66.60;;;;;;6216543;28;89041;-62
2024/01/01 01:15:28;;;;;;;7.22;6.53;;;23.80;66.60;;;;;;6226938;28;90000;-62
2024/01/01 01:18:32;;;;;;;6.90;6.28;;;23.80;66.60;;;;;;6227700;28;89158;-62
2024/01/01 01:21:34;;;;;;;6.80;6.20;;;23.70;66.60;;;;;;6224998;28;87865;-62
2024/01/01 01:24:36;;;;;;;6.63;6.07;;;23.70;66.60;;;;;;6224725;28;89143;-62
2024/01/01 01:27:38;;;;;;;6.50;5.93;;;23.70;66.40;;;;;;6227125;28;88999;-62
2024/01/01 01:30:39;;;;;;;6.70;6.15;;;23.70;66.30;;;;;;6226788;28;89050;-62
2024/01/01 01:33:43;;;;;;;6.43;5.82;;;23.70;66.30;;;;;;6231134;28;89038;-62
2024/01/01 01:36:45;;;;;;;6.30;5.78;;;23.70;66.30;;;;;;6231096;28;87068;-62
2024/01/01 01:39:47;;;;;;;6.65;6.05;;;23.70;66.30;;;;;;6222933;28;89001;-61
2024/01/01 01:42:49;;;;;;;6.78;6.18;;;23.70;66.30;;;;;;6226021;28;87915;-62
2024/01/01 01:45:52;;;;;;;6.35;5.75;;;23.60;66.30;;;;;;6230902;28;90062;-62
2024/01/01 01:48:55;;;;;;;6.57;5.97;;;23.60;66.20;;;;;;6232121;28;89145;-62
2024/01/01 01:51:58;;;;;;;6.45;5.85;;;23.60;66.20;;;;;;6231103;28;89038;-62
2024/01/01 01:55:00;;;;;;;6.90;6.30;;;23.60;66.20;;;;;;6224342;28;89269;-62
2024/01/01 01:58:03;;;;;;;6.82;6.22;;;23.60;66.40;;;;;;6224045;28;88965;-62
2024/01/01 02:01:06;;;;;;;6.65;6.07;;;23.60;66.50;;;;;;6222829;28;89267;-62
2024/01/01 02:04:10;;;;;;;6.68;6.07;;;23.60;66.60;;;;;;6233029;28;88951;-62
2024/01/01 02:07:12;;;;;;;6.60;6.00;;;23.60;66.70;;;;;;6226752;28;88498;-62
2024/01/01 02:10:14;;;;;;;6.80;6.20;;;23.50;66.70;;;;;;6225612;28;89541;-62
2024/01/01 02:13:26;;;;;;;6.63;6.03;;;23.50;66.70;;;;;;6230594;28;89810;-62
2024/01/01 02:16:28;;;;;;;6.40;5.80;;;23.50;66.80;;;;;;6228813;28;90390;-63
2024/01/01 02:19:31;;;;;;;6.38;5.78;;;23.50;66.80;;;;;;6232032;28;89187;-62
2024/01/01 02:22:38;;;;;;;6.40;5.82;;;23.50;66.80;;;;;;6232033;28;89325;-63
2024/01/01 02:25:41;;;;;;;6.50;5.90;;;23.50;66.80;;;;;;6222378;28;89223;-62
2024/01/01 02:28:43;;;;;;;6.32;5.78;;;23.50;66.80;;;;;;6228536;28;89280;-62
2024/01/01 02:31:46;;;;;;;6.00;5.50;;;23.50;66.70;;;;;;6223704;28;89017;-62
2024/01/01 02:34:49;;;;;;;5.90;5.40;;;23.50;66.70;;;;;;6220997;28;89182;-62
2024/01/01 02:37:51;;;;;;;5.97;5.47;;;23.40;66.70;;;;;;6226609;28;89079;-62
2024/01/01 02:40:54;;;;;;;6.00;5.50;;;23.40;66.70;;;;;;6224790;28;88592;-63
2024/01/01 02:43:56;;;;;;;5.70;5.20;;;23.40;66.80;;;;;;6226564;28;89081;-62
2024/01/01 02:46:58;;;;;;;6.05;5.47;;;23.40;66.70;;;;;;6226542;28;90111;-62
2024/01/01 02:50:00;;;;;;;5.78;5.20;;;23.30;66.60;;;;;;6227430;28;89174;-62
2024/01/01 02:53:02;;;;;;;5.50;5.00;;;23.40;66.70;;;;;;6222176;28;89346;-62
2024/01/01 02:56:06;;;;;;;5.43;4.93;;;23.40;66.70;;;;;;6228447;28;89325;-62
2024/01/01 02:59:08;;;;;;;5.82;5.32;;;23.40;66.70;;;;;;6221143;28;89154;-61
2024/01/01 03:02:12;;;;;;;5.45;4.95;;;23.30;66.60;;;;;;6221685;28;89372;-62
2024/01/01 03:05:14;;;;;;;5.75;5.15;;;23.30;66.60;;;;;;6225637;28;89458;-62
2024/01/01 03:08:16;;;;;;;5.20;4.70;;;23.30;66.60;;;;;;6231215;28;87832;-62
2024/01/01 03:11:19;;;;;;;5.55;5.05;;;23.30;66.50;;;;;;6224039;28;89085;-63
2024/01/01 03:14:21;;;;;;;6.22;4.90;;;23.30;66.60;;;;;;6224819;28;89105;-63
2024/01/01 03:17:23;;;;;;;4.68;4.28;;;23.30;66.60;;;;;;6227431;28;90022;-63
2024/01/01 03:20:31;;;;;;;5.05;4.55;;;23.30;66.60;;;;;;6229749;28;89201;-62
2024/01/01 03:23:33;;;;;;;5.60;5.10;;;23.30;66.60;;;;;;6230527;28;89024;-62
2024/01/01 03:26:36;;;;;;;5.10;4.60;;;23.30;66.50;;;;;;6224041;28;89146;-63
2024/01/01 03:29:38;;;;;;;5.28;4.72;;;23.30;66.40;;;;;;6230274;28;89016;-63
2024/01/01 03:32:41;;;;;;;5.35;4.85;;;23.30;66.40;;;;;;6218341;28;88986;-62
2024/01/01 03:35:43;;;;;;;4.72;4.32;;;23.20;66.40;;;;;;6228478;28;89284;-62
2024/01/01 03:38:45;;;;;;;4.80;4.30;;;23.20;66.30;;;;;;6226448;28;88323;-63
2024/01/01 03:41:48;;;;;;;4.40;4.00;;;23.20;66.20;;;;;;6228507;28;88990;-63
2024/01/01 03:44:50;;;;;;;4.32;3.92;;;23.20;66.40;;;;;;6226713;28;88787;-63
2024/01/01 03:47:53;;;;;;;4.90;4.50;;;23.20;67.20;;;;;;6220434;28;89913;-63
2024/01/01 03:50:55;;;;;;;5.85;4.88;;;23.20;66.50;;;;;;6228477;28;89046;-63
2024/01/01 03:53:57;;;;;;;4.82;4.35;;;23.20;66.20;;;;;;6223428;28;88018;-63
2024/01/01 03:57:00;;;;;;;4.43;4.03;;;23.10;66.20;;;;;;6226422;28;89757;-63
2024/01/01 04:00:03;;;;;;;4.43;4.00;;;23.10;66.20;;;;;;6227151;28;88992;-63
2024/01/01 04:03:05;;;;;;;4.78;4.35;;;23.10;66.10;;;;;;6230259;28;88735;-63
2024/01/01 04:06:08;;;;;;;4.70;4.30;;;23.10;66.20;;;;;;6222211;28;88985;-63
2024/01/01 04:09:10;;;;;;;4.30;3.90;;;23.10;66.10;;;;;;6228388;28;88593;-62
2024/01/01 04:12:14;;;;;;;3.95;3.65;;;23.10;66.10;;;;;;6223065;28;88763;-63
2024/01/01 04:15:16;;;;;;;4.78;4.38;;;23.10;66.10;;;;;;6224046;28;88030;-63
2024/01/01 04:18:18;;;;;;;5.15;4.30;;;23.00;66.10;;;;;;6224507;28;90138;-63
2024/01/01 04:21:20;;;;;;;4.50;4.10;;;23.00;66.10;;;;;;6217119;28;89040;-63
2024/01/01 04:24:22;;;;;;;4.57;4.18;;;23.00;66.10;;;;;;6219597;28;89153;-62
2024/01/01 04:27:25;;;;;;;4.30;3.90;;;23.00;66.20;;;;;;6223445;28;89069;-62
2024/01/01 04:30:27;;;;;;;3.88;3.58;;;23.00;65.90;;;;;;6219309;28;89140;-62
2024/01/01 04:33:29;;;;;;;4.07;3.70;;;23.00;66.10;;;;;;6222780;28;89620;-62
2024/01/01 04:36:32;;;;;;;4.20;3.80;;;23.10;66.00;;;;;;6217723;28;89031;-62
2024/01/01 04:39:33;;;;;;;4.32;3.90;;;23.10;66.10;;;;;;6227719;28;87219;-62
2024/01/01 04:42:37;;;;;;;4.55;3.72;;;23.10;65.90;;;;;;6229847;28;87943;-62
2024/01/01 04:45:39;;;;;;;3.92;3.53;;;23.10;65.70;;;;;;6226960;28;87875;-62
2024/01/01 04:48:41;;;;;;;4.13;3.72;;;23.10;65.70;;;;;;6225077;28;90146;-62
2024/01/01 04:51:42;;;;;;;4.55;3.55;;;23.10;65.70;;;;;;6218936;28;89124;-62
2024/01/01 04:54:45;;;;;;;4.50;3.53;;;23.20;65.70;;;;;;6234216;28;89333;-63
2024/01/01 04:57:48;;;;;;;3.67;3.38;;;23.20;65.50;;;;;;6229015;28;88931;-62
2024/01/01 05:00:50;;;;;;;3.92;3.60;;;23.20;65.50;;;;;;6225423;28;89725;-61
2024/01/01 05:03:52;;;;;;;3.50;3.20;;;23.20;65.40;;;;;;6224783;28;89345;-62
2024/01/01 05:06:54;;;;;;;3.97;3.50;;;23.20;65.30;;;;;;6221485;28;89022;-62
2024/01/01 05:09:56;;;;;;;3.50;3.20;;;23.30;65.30;;;;;;6232446;28;88413;-62
2024/01/01 05:12:59;;;;;;;6.80;3.35;;;23.30;65.20;;;;;;6232886;28;88924;-62
2024/01/01 05:16:01;;;;;;;3.75;3.42;;;23.30;65.20;;;;;;6227402;28;89075;-62
2024/01/01 05:19:04;;;;;;;3.47;3.17;;;23.30;65.10;;;;;;6228416;28;90045;-62
2024/01/01 05:22:06;;;;;;;3.53;3.22;;;23.30;65.10;;;;;;6232205;28;87888;-62
2024/01/01 05:25:09;;;;;;;3.25;2.95;;;23.30;65.10;;;;;;6230185;28;89223;-62
2024/01/01 05:28:12;;;;;;;3.83;3.30;;;23.30;65.00;;;;;;6223818;28;89055;-63
2024/01/01 05:31:19;;;;;;;4.00;3.60;;;23.30;65.00;;;;;;6221382;28;89053;-62
2024/01/01 05:34:21;;;;;;;3.50;3.20;;;23.30;65.90;;;;;;6234091;28;89075;-62
2024/01/01 05:37:24;;;;;;;3.30;3.00;;;23.40;65.10;;;;;;6218842;28;89047;-62
2024/01/01 05:40:26;;;;;;;3.50;3.20;;;23.30;65.00;;;;;;6225277;28;88395;-62
2024/01/01 05:43:31;;;;;;;3.60;3.15;;;23.30;65.00;;;;;;6227973;28;89173;-63
2024/01/01 05:46:33;;;;;;;3.30;3.00;;;23.30;65.00;;;;;;6231705;28;89537;-63
2024/01/01 05:49:35;;;;;;;4.63;3.30;;;23.30;65.00;;;;;;6231967;28;89010;-62
2024/01/01 05:52:37;;;;;;;4.45;3.38;;;23.30;65.20;;;;;;6228293;28;89451;-63
2024/01/01 05:55:39;;;;;;;3.78;3.15;;;23.30;65.10;;;;;;6232276;28;89151;-63
2024/01/01 05:58:42;;;;;;;3.13;2.83;;;23.30;65.00;;;;;;6231760;28;89570;-63
2024/01/01 06:01:45;;;;;;;3.13;2.83;;;23.30;65.10;;;;;;6228481;28;89352;-62
2024/01/01 06:04:46;;;;;;;2.90;2.70;;;23.30;65.10;;;;;;6230169;28;88082;-63
2024/01/01 06:07:51;;;;;;;3.08;2.78;;;23.30;65.00;;;;;;6233359;28;89381;-63
2024/01/01 06:10:53;;;;;;;2.90;2.60;;;23.30;65.00;;;;;;6216904;28;88370;-63
2024/01/01 06:13:56;;;;;;;3.17;2.90;;;23.30;65.00;;;;;;6222686;28;89161;-63
2024/01/01 06:16:58;;;;;;;3.72;3.00;;;23.20;64.90;;;;;;6221693;28;89082;-62
2024/01/01 06:20:00;;;;;;;3.72;3.03;;;23.30;65.00;;;;;;6217891;28;88898;-63
2024/01/01 06:23:04;;;;;;;3.15;2.58;;;23.30;64.90;;;;;;6227400;28;89198;-63
2024/01/01 06:26:06;;;;;;;3.10;2.80;;;23.30;64.90;;;;;;6231605;28;88903;-63
2024/01/01 06:29:09;;;;;;;2.90;2.60;;;23.30;64.90;;;;;;6225583;28;89056;-63
2024/01/01 06:32:11;;;;;;;3.22;2.60;;;23.30;64.90;;;;;;6232331;28;90136;-62
2024/01/01 06:35:13;;;;;;;3.13;2.75;;;23.30;64.80;;;;;;6230925;28;87939;-63
2024/01/01 06:38:15;;;;;;;2.70;2.50;;;23.30;64.80;;;;;;6241888;28;89056;-62
2024/01/01 06:41:17;;;;;;;3.03;2.72;;;23.30;64.80;;;;;;6215336;28;89093;-63
2024/01/01 06:44:25;;;;;;;2.70;2.50;;;23.30;64.80;;;;;;6227716;28;88974;-63
2024/01/01 06:47:27;;;;;;;3.33;2.88;;;23.30;64.80;;;;;;6227861;28;89084;-62
2024/01/01 06:50:29;;;;;;;3.10;2.70;;;23.30;64.70;;;;;;6228325;28;90001;-62
2024/01/01 06:53:31;;;;;;;3.22;2.80;;;23.30;64.80;;;;;;6224543;28;88171;-62
2024/01/01 06:56:32;;;;;;;2.78;2.38;;;23.40;64.90;;;;;;6227628;28;89023;-62
2024/01/01 06:59:36;;;;;;;3.53;2.70;;;23.30;64.90;;;;;;6229620;28;89054;-62
2024/01/01 07:02:38;;;;;;;2.47;2.22;;;23.40;64.90;;;;;;6224841;28;89049;-62
2024/01/01 07:05:40;;;;;;;2.92;2.40;;;23.40;64.90;;;;;;6229423;28;89417;-62
2024/01/01 07:08:42;;;;;;;3.53;2.78;;;23.40;64.90;;;;;;6230055;28;89449;-62
2024/01/01 07:11:45;;;;;;;3.58;2.80;;;23.40;64.90;;;;;;6232607;28;87270;-62
2024/01/01 07:14:48;;;;;;;2.92;2.58;;;23.40;64.90;;;;;;6224890;28;89084;-63
2024/01/01 07:17:50;;;;;;;3.53;2.55;;;23.40;64.90;;;;;;6231736;28;89298;-62
2024/01/01 07:20:52;;;;;;;2.72;2.53;;;23.40;64.90;;;;;;6231048;28;88877;-63
2024/01/01 07:23:54;;;;;;;2.80;2.50;;;23.40;64.90;;;;;;6231864;28;89116;-63
2024/01/01 07:26:57;;;;;;;2.80;2.50;;;23.40;64.90;;;;;;6227680;28;89504;-63
2024/01/01 07:30:03;;;;;;;2.85;2.53;;;23.40;64.90;;;;;;6230339;28;89226;-62
2024/01/01 07:33:06;;;;;;;3.75;2.90;;;23.40;64.90;;;;;;6237046;28;89250;-62
2024/01/01 07:36:11;;;;;;;2.95;2.65;;;23.40;64.90;;;;;;6239063;28;89050;-62
2024/01/01 07:39:13;;;;;;;2.63;2.33;;;23.40;64.90;;;;;;6229468;28;89429;-62
2024/01/01 07:42:15;;;;;;;2.90;2.60;;;23.40;64.90;;;;;;6221931;28;88270;-62
2024/01/01 07:45:19;;;;;;;2.90;2.60;;;23.40;65.10;;;;;;6223732;28;89118;-63
2024/01/01 07:48:21;;;;;;;2.88;2.53;;;23.40;65.10;;;;;;6229660;28;88976;-62
2024/01/01 07:51:23;;;;;;;3.30;2.92;;;23.40;64.90;;;;;;6228899;28;89933;-62
2024/01/01 07:54:26;;;;;;;3.25;2.90;;;23.40;65.00;;;;;;6219652;28;89034;-62
2024/01/01 07:57:28;;;;;;;3.00;2.70;;;23.40;65.40;;;;;;6221825;28;89277;-62
2024/01/01 08:00:31;;;;;;;3.25;2.95;;;23.40;65.70;;;;;;6210746;28;88213;-62
2024/01/01 08:03:33;;;;;;;3.80;2.72;;;23.40;66.00;;;;;;6214559;28;88998;-62
2024/01/01 08:06:36;;;;;;;3.83;3.20;;;23.40;66.20;;;;;;6227969;28;89013;-63
2024/01/01 08:09:38;;;;;;;3.55;3.10;;;23.40;66.40;;;;;;6227113;28;88735;-63
2024/01/01 08:12:39;;;;;;;4.30;3.35;;;23.50;66.80;;;;;;6227565;28;87217;-63
2024/01/01 08:15:43;;;;;;;5.13;3.22;;;23.50;67.10;;;;;;6229678;28;88119;-63
2024/01/01 08:18:45;;;;;;;4.18;3.03;;;23.50;67.50;;;;;;6222953;28;89012;-63
2024/01/01 08:21:47;;;;;;;3.92;3.05;;;23.50;67.60;;;;;;6222901;28;89212;-63
2024/01/01 08:24:49;;;;;;;10.07;3.38;;;23.50;67.70;;;;;;6222467;28;88294;-63
2024/01/01 08:27:51;;;;;;;3.30;3.00;;;23.50;67.70;;;;;;6228021;28;89142;-64
2024/01/01 08:30:54;;;;;;;3.95;3.30;;;23.60;68.70;;;;;;6226724;28;89027;-64
2024/01/01 08:33:56;;;;;;;6.47;2.80;;;23.60;67.90;;;;;;6230400;28;89035;-64
2024/01/01 08:36:59;;;;;;;3.67;3.25;;;23.60;67.90;;;;;;6225960;28;89365;-63
2024/01/01 08:40:01;;;;;;;4.15;3.35;;;23.60;68.00;;;;;;6225552;28;89004;-62
2024/01/01 08:43:03;;;;;;;4.30;3.20;;;23.60;68.50;;;;;;6222619;28;88329;-64
2024/01/01 08:46:08;;;;;;;3.20;2.88;;;23.60;68.90;;;;;;6224860;28;88924;-64
2024/01/01 08:49:10;;;;;;;3.83;3.20;;;23.60;68.80;;;;;;6229447;28;89079;-64
2024/01/01 08:52:12;;;;;;;3.20;2.90;;;23.60;68.70;;;;;;6230939;28;90043;-63
2024/01/01 08:55:14;;;;;;;5.35;3.00;;;23.60;68.80;;;;;;6231409;28;89955;-63
2024/01/01 08:58:16;;;;;;;3.92;3.30;;;23.70;68.90;;;;;;6227147;28;88888;-63
2024/01/01 09:01:20;;;;;;;4.30;3.13;;;23.70;69.00;;;;;;6227407;28;89011;-64
2024/01/01 09:04:22;;;;;;;5.38;3.70;;;23.70;69.10;;;;;;6229528;28;89154;-64
2024/01/01 09:07:24;;;;;;;7.22;3.95;;;23.70;69.30;;;;;;6218852;28;89334;-63
2024/01/01 09:10:26;;;;;;;5.18;3.47;;;23.70;69.40;;;;;;6226442;28;89063;-64
2024/01/01 09:13:28;;;;;;;8.18;3.80;;;23.70;69.40;;;;;;6229323;28;88241;-64
2024/01/01 09:16:31;;;;;;;5.55;3.13;;;23.70;69.40;;;;;;6224982;28;88995;-64
2024/01/01 09:19:33;;;;;;;6.40;3.00;;;23.80;68.80;;;;;;6225871;28;89023;-64
2024/01/01 09:22:35;;;;;;;4.57;2.97;;;23.80;68.10;;;;;;6227685;28;89953;-65
2024/01/01 09:25:39;;;;;;;4.07;3.00;;;23.80;67.60;;;;;;6226686;28;88376;-64
2024/01/01 09:28:41;;;;;;;5.57;2.70;;;23.80;66.90;;;;;;6228274;28;88963;-65
2024/01/01 09:31:45;;;;;;;5.97;3.08;;;23.80;66.70;;;;;;6228398;28;89135;-64
2024/01/01 09:34:47;;;;;;;5.65;3.40;;;23.80;65.90;;;;;;6227500;28;89196;-64
2024/01/01 09:37:52;;;;;;;5.22;3.20;;;23.80;65.40;;;;;;6231225;28;89160;-64
2024/01/01 09:40:56;;;;;;;7.57;3.17;;;23.80;64.90;;;;;;6222048;28;89098;-64
2024/01/01 09:43:58;;;;;;;6.40;3.28;;;23.80;64.20;;;;;;6232537;28;88917;-65
2024/01/01 09:47:02;;;;;;;7.55;3.67;;;23.90;64.00;;;;;;6231961;28;88792;-65
2024/01/01 09:50:05;;;;;;;5.13;2.85;;;23.90;63.80;;;;;;6232379;28;89109;-65
2024/01/01 09:53:07;;;;;;;7.20;3.17;;;23.90;63.30;;;;;;6228838;28;90502;-64
2024/01/01 09:56:09;;;;;;;9.90;3.50;;;23.90;63.50;;;;;;6228307;28;89047;-66
2024/01/01 09:59:11;;;;;;;5.70;3.00;;;23.90;67.10;;;;;;6229847;28;89050;-67
2024/01/01 10:02:14;;;;;;;5.50;2.50;;;23.90;64.30;;;;;;6232466;28;89279;-67
2024/01/01 10:05:17;;;;;;;6.35;3.20;;;23.90;63.40;;;;;;6231199;28;89094;-67
2024/01/01 10:08:19;;;;;;;6.70;3.03;;;23.90;64.40;;;;;;6231608;28;89066;-67
2024/01/01 10:11:21;;;;;;;4.70;2.70;;;23.90;64.90;;;;;;6230297;28;89040;-67
2024/01/01 10:14:24;;;;;;;5.97;2.88;;;24.00;65.20;;;;;;6233939;28;88408;-67
2024/01/01 10:17:27;;;;;;;7.65;3.22;;;24.00;65.50;;;;;;6217599;28;89029;-68
2024/01/01 10:20:29;;;;;;;8.35;3.05;;;24.00;66.40;;;;;;6221728;28;89012;-67
2024/01/01 10:23:31;;;;;;;12.27;3.33;;;24.00;66.60;;;;;;6225273;28;88875;-66
2024/01/01 10:26:39;;;;;;;12.93;4.47;;;24.00;66.70;;;;;;6225998;28;89102;-65
2024/01/01 10:29:41;;;;;;;11.20;4.15;;;24.10;73.60;;;;;;6224106;28;89106;-65
2024/01/01 10:32:46;;;;;;;10.57;3.40;;;24.10;75.40;;;;;;6223538;28;89048;-65
2024/01/01 10:35:48;;;;;;;12.27;3.92;;;24.20;73.10;;;;;;6226319;28;89043;-65
2024/01/01 10:38:51;;;;;;;13.95;4.07;;;24.30;71.50;;;;;;6228956;28;89367;-65
2024/01/01 10:41:53;;;;;;;17.98;3.70;;;24.30;71.10;;;;;;6221953;28;89094;-65
2024/01/01 10:44:55;;;;;;;9.57;3.17;;;24.30;70.00;;;;;;6231995;28;88358;-65
2024/01/01 10:48:00;;;;;;;11.02;3.20;;;24.30;69.30;;;;;;6230626;28;89072;-65
2024/01/01 10:51:22;;;;;;;9.80;3.10;;;24.30;69.10;;;;;;6231917;28;89351;-64
2024/01/01 10:54:54;;;;;;;5.57;2.75;;;24.30;68.80;;;;;;6230930;28;90287;-65
2024/01/01 10:58:21;;;;;;;5.53;3.10;;;24.30;68.90;;;;;;6218988;28;89021;-65
2024/01/01 11:01:25;;;;;;;8.70;2.90;;;24.30;68.50;;;;;;6232228;28;88944;-65
2024/01/01 11:04:28;;;;;;;7.10;3.00;;;24.30;68.50;;;;;;6230081;28;89006;-65
2024/01/01 11:07:59;;;;;;;7.13;3.03;;;24.30;68.30;;;;;;6229129;28;89424;-65
2024/01/01 11:11:21;;;;;;;5.18;2.90;;;24.30;68.10;;;;;;6226457;28;87891;-65
2024/01/01 11:14:25;;;;;;;8.07;2.90;;;24.30;68.10;;;;;;6227451;28;89117;-65
2024/01/01 11:17:28;;;;;;;4.75;2.80;;;24.30;68.10;;;;;;6226804;28;88434;-65
2024/01/01 11:20:53;;;;;;;5.65;2.63;;;24.30;68.00;;;;;;6219795;28;87985;-65
2024/01/01 11:23:55;;;;;;;4.45;2.70;;;24.30;68.00;;;;;;6228136;28;88980;-65
2024/01/01 11:26:57;;;;;;;4.05;2.60;;;24.30;67.90;;;;;;6229521;28;90135;-65
2024/01/01 11:30:05;;;;;;;3.72;2.50;;;24.30;67.90;;;;;;6231319;28;89102;-65
2024/01/01 11:33:07;;;;;;;7.18;2.50;;;24.30;68.00;;;;;;6231176;28;89053;-65
2024/01/01 11:36:11;;;;;;;6.40;2.63;;;24.30;67.90;;;;;;6229346;28;89065;-65
2024/01/01 11:39:13;;;;;;;6.93;2.60;;;24.30;67.90;;;;;;6225433;28;89181;-65
2024/01/01 11:42:19;;;;;;;4.85;2.53;;;24.30;67.90;;;;;;6232330;28;89309;-65
2024/01/01 11:45:21;;;;;;;5.70;2.65;;;24.30;67.90;;;;;;6230928;28;89027;-65
2024/01/01 11:48:23;;;;;;;4.47;2.53;;;24.30;67.90;;;;;;6228334;28;88795;-65
2024/01/01 11:51:31;;;;;;;3.75;2.28;;;24.30;67.90;;;;;;6229897;28;89054;-65
2024/01/01 11:54:34;;;;;;;3.75;2.50;;;24.20;67.80;;;;;;6231435;28;89121;-65
2024/01/01 11:57:36;;;;;;;5.70;2.40;;;24.20;67.80;;;;;;6229725;28;89954;-65
2024/01/01 12:00:38;;;;;;;4.50;2.30;;;24.20;67.90;;;;;;6228992;28;89228;-65
2024/01/01 12:03:40;;;;;;;3.15;2.30;;;24.20;67.90;;;;;;6209182;28;87986;-65
2024/01/01 12:06:49;;;;;;;3.65;2.20;;;24.20;67.90;;;;;;6231316;28;90495;-65
2024/01/01 12:10:06;;;;;;;4.53;2.40;;;24.20;67.90;;;;;;6232349;28;89419;-65
2024/01/01 12:13:08;;;;;;;3.83;2.25;;;24.20;67.80;;;;;;6230424;28;88109;-65
2024/01/01 12:16:16;;;;;;;3.15;2.10;;;24.20;67.80;;;;;;6231318;28;89172;-65
2024/01/01 12:19:22;;;;;;;2.33;1.90;;;24.20;67.80;;;;;;6230089;28;87486;-65
2024/01/01 12:22:26;;;;;;;3.80;2.20;;;24.30;67.90;;;;;;6231240;28;89297;-65
2024/01/01 12:25:29;;;;;;;3.83;2.08;;;24.20;67.90;;;;;;6230583;28;88851;-65
2024/01/01 12:28:31;;;;;;;3.00;2.30;;;24.20;67.80;;;;;;6228369;28;90079;-65
2024/01/01 12:31:33;;;;;;;3.80;2.42;;;24.20;67.80;;;;;;6230349;28;89153;-65
2024/01/01 12:34:35;;;;;;;3.40;2.30;;;24.20;67.90;;;;;;6230620;28;89126;-65
2024/01/01 12:37:38;;;;;;;3.35;2.15;;;24.30;67.90;;;;;;6217266;28;89101;-65
2024/01/01 12:40:41;;;;;;;3.03;2.20;;;24.20;67.80;;;;;;6231166;28;89014;-65
2024/01/01 12:43:43;;;;;;;3.92;2.08;;;24.20;67.90;;;;;;6230187;28;89002;-65
2024/01/01 12:46:46;;;;;;;3.90;2.28;;;24.20;67.90;;;;;;6228542;28;89126;-65
2024/01/01 12:49:48;;;;;;;2.80;2.10;;;24.20;67.80;;;;;;6229037;28;88162;-65
2024/01/01 12:52:51;;;;;;;3.08;2.20;;;24.20;67.80;;;;;;6230165;28;89039;-65
2024/01/01 12:55:53;;;;;;;3.35;2.13;;;24.20;67.80;;;;;;6213857;28;89278;-65
2024/01/01 12:58:55;;;;;;;3.88;2.42;;;24.20;67.80;;;;;;6219951;28;89925;-65
2024/01/01 13:01:57;;;;;;;3.17;2.10;;;24.20;67.90;;;;;;6231041;28;87909;-65
2024/01/01 13:04:59;;;;;;;3.80;2.35;;;24.20;67.90;;;;;;6230473;28;89053;-65
2024/01/01 13:08:03;;;;;;;2.42;2.10;;;24.20;67.90;;;;;;6219933;28;88878;-65
2024/01/01 13:11:06;;;;;;;4.25;2.50;;;24.20;67.90;;;;;;6232101;28;87882;-65
2024/01/01 13:14:08;;;;;;;3.00;2.05;;;24.20;67.90;;;;;;6234878;28;89435;-65
2024/01/01 13:17:11;;;;;;;2.85;2.17;;;24.20;67.90;;;;;;6226082;28;89103;-65
2024/01/01 13:20:14;;;;;;;4.18;2.00;;;24.20;68.30;;;;;;6234787;28;88414;-65
2024/01/01 13:23:17;;;;;;;2.78;2.13;;;24.20;67.90;;;;;;6234338;28;87916;-65
2024/01/01 13:26:19;;;;;;;3.40;2.30;;;24.20;67.90;;;;;;6233523;28;89124;-65
2024/01/01 13:29:21;;;;;;;3.47;2.42;;;24.20;67.90;;;;;;6227783;28;89952;-65
2024/01/01 13:32:23;;;;;;;3.97;2.38;;;24.20;67.90;;;;;;6224857;28;87855;-65
2024/01/01 13:35:25;;;;;;;3.55;2.30;;;24.20;67.90;;;;;;6234092;28;89021;-65
2024/01/01 13:38:28;;;;;;;3.53;2.50;;;24.20;67.90;;;;;;6223831;28;88300;-65
2024/01/01 13:41:30;;;;;;;2.83;2.40;;;24.20;67.80;;;;;;6233705;28;89139;-65
2024/01/01 13:44:33;;;;;;;4.10;2.55;;;24.20;67.80;;;;;;6233419;28;89635;-65
2024/01/01 13:47:35;;;;;;;3.65;2.70;;;24.20;67.80;;;;;;6230266;28;89144;-65
2024/01/01 13:50:38;;;;;;;5.30;3.28;;;24.20;67.90;;;;;;6234237;28;88688;-65
2024/01/01 13:53:41;;;;;;;4.97;4.47;;;24.20;67.90;;;;;;6222507;28;89349;-65
2024/01/01 13:56:44;;;;;;;4.75;4.00;;;24.20;67.80;;;;;;6232902;28;89048;-65
2024/01/01 13:59:46;;;;;;;5.35;4.85;;;24.20;67.80;;;;;;6233394;28;89917;-65
2024/01/01 14:02:48;;;;;;;5.70;5.10;;;24.20;67.90;;;;;;6232830;28;88035;-65
2024/01/01 14:05:50;;;;;;;6.18;5.57;;;24.20;67.80;;;;;;6228719;28;88006;-65
2024/01/01 14:08:54;;;;;;;6.30;5.70;;;24.20;67.70;;;;;;6229797;28;89116;-65
2024/01/01 14:11:57;;;;;;;7.10;6.40;;;24.20;67.80;;;;;;6228281;28;89082;-65
2024/01/01 14:15:01;;;;;;;6.88;6.28;;;24.20;67.70;;;;;;6224977;28;88878;-65
2024/01/01 14:18:03;;;;;;;7.25;6.55;;;24.20;67.70;;;;;;6232575;28;89165;-64
2024/01/01 14:21:05;;;;;;;7.82;7.13;;;24.20;67.70;;;;;;6221526;28;88336;-65
2024/01/01 14:24:09;;;;;;;7.90;7.13;;;24.20;67.70;;;;;;6223057;28;88979;-65
2024/01/01 14:27:11;;;;;;;8.52;7.32;;;24.20;67.70;;;;;;6229156;28;89125;-65
2024/01/01 14:30:15;;;;;;;7.63;6.93;;;24.20;67.60;;;;;;6220163;28;88958;-65
2024/01/01 14:33:17;;;;;;;7.65;6.85;;;24.20;67.60;;;;;;6223686;28;89106;-65
2024/01/01 14:36:19;;;;;;;8.23;7.53;;;24.20;67.60;;;;;;6231990;28;89042;-65
2024/01/01 14:39:22;;;;;;;7.70;7.00;;;24.20;67.60;;;;;;6230884;28;88080;-65
2024/01/01 14:42:24;;;;;;;7.97;7.20;;;24.20;67.60;;;;;;6231889;28;89123;-65
2024/01/01 14:45:26;;;;;;;7.88;7.10;;;24.20;67.60;;;;;;6226011;28;88039;-65
2024/01/01 14:48:28;;;;;;;7.68;6.97;;;24.20;67.50;;;;;;6224239;28;89292;-65
2024/01/01 14:51:30;;;;;;;7.78;7.03;;;24.20;67.50;;;;;;6232422;28;88247;-65
2024/01/01 14:54:34;;;;;;;8.35;7.20;;;24.10;67.40;;;;;;6231816;28;88955;-65
2024/01/01 14:57:36;;;;;;;7.45;6.75;;;24.20;67.50;;;;;;6218304;28;88687;-65
2024/01/01 15:00:38;;;;;;;7.85;7.05;;;24.10;67.40;;;;;;6229329;28;90434;-65
2024/01/01 15:03:40;;;;;;;7.20;6.60;;;24.10;67.40;;;;;;6222738;28;89153;-65
2024/01/01 15:06:42;;;;;;;7.40;6.70;;;24.10;67.40;;;;;;6231352;28;87928;-65
2024/01/01 15:09:46;;;;;;;7.07;6.40;;;24.20;67.40;;;;;;6232139;28;89417;-65
2024/01/01 15:12:48;;;;;;;8.40;7.18;;;24.20;67.40;;;;;;6231669;28;89574;-65
2024/01/01 15:15:50;;;;;;;7.30;6.60;;;24.20;67.40;;;;;;6227069;28;89046;-65
2024/01/01 15:18:52;;;;;;;6.45;5.80;;;24.10;67.30;;;;;;6219889;28;88636;-65
2024/01/01 15:21:54;;;;;;;6.85;6.25;;;24.10;67.30;;;;;;6232927;28;88567;-65
2024/01/01 15:24:58;;;;;;;6.70;6.13;;;24.20;67.40;;;;;;6231389;28;89050;-65
2024/01/01 15:28:02;;;;;;;6.85;6.18;;;24.20;67.40;;;;;;6220987;28;89176;-65
2024/01/01 15:31:04;;;;;;;6.40;5.80;;;24.20;67.40;;;;;;6229872;28;90137;-65
2024/01/01 15:34:06;;;;;;;6.07;5.57;;;24.20;67.40;;;;;;6226325;28;89351;-65
2024/01/01 15:37:08;;;;;;;6.45;5.85;;;24.20;67.30;;;;;;6213557;28;89266;-65
2024/01/01 15:40:12;;;;;;;6.43;5.82;;;24.20;67.40;;;;;;6223163;28;89376;-65
2024/01/01 15:43:14;;;;;;;7.22;6.53;;;24.20;67.30;;;;;;6230290;28;89044;-65
2024/01/01 15:46:18;;;;;;;6.38;5.85;;;24.20;67.40;;;;;;6222626;28;89074;-65
2024/01/01 15:49:20;;;;;;;7.55;6.32;;;24.20;67.40;;;;;;6230769;28;89273;-65
2024/01/01 15:52:23;;;;;;;7.28;6.22;;;24.20;67.30;;;;;;6230410;28;88568;-65